createdAt,value
2017-12-25T00:00:21.425Z,15.77
2017-12-25T00:02:49.650Z,16.90
2017-12-25T00:05:17.873Z,15.80
2017-12-25T00:07:46.100Z,18.97
2017-12-25T00:10:15.441Z,16.70
2017-12-25T00:12:44.425Z,16.70
2017-12-25T00:15:13.731Z,17.70
2017-12-25T00:17:42.718Z,19.47
2017-12-25T00:20:11.714Z,20.00
2017-12-25T00:22:40.725Z,20.30
2017-12-25T00:25:08.949Z,15.40
2017-12-25T00:27:37.174Z,18.27
2017-12-25T00:30:05.386Z,19.10
2017-12-25T00:32:33.621Z,21.00
2017-12-25T00:35:02.822Z,21.00
2017-12-25T00:37:31.194Z,16.37
2017-12-25T00:39:59.410Z,15.93
2017-12-25T00:42:27.657Z,18.50
2017-12-25T00:44:55.866Z,19.00
2017-12-25T00:47:24.084Z,18.60
2017-12-25T00:49:53.077Z,20.67
2017-12-25T00:52:22.074Z,20.17
2017-12-25T00:54:51.061Z,21.70
2017-12-25T00:57:20.041Z,22.00
2017-12-25T00:59:48.526Z,19.50
2017-12-25T01:02:16.717Z,19.97
2017-12-25T01:04:45.706Z,20.93
2017-12-25T01:07:14.995Z,21.07
2017-12-25T01:09:43.997Z,18.67
2017-12-25T01:12:12.969Z,24.20
2017-12-25T01:14:41.953Z,20.80
2017-12-25T01:17:11.271Z,18.87
2017-12-25T01:19:40.263Z,22.13
2017-12-25T01:22:09.277Z,21.23
2017-12-25T01:24:37.497Z,19.93
2017-12-25T01:27:05.729Z,22.13
2017-12-25T01:29:33.948Z,22.87
2017-12-25T01:32:02.458Z,23.33
2017-12-25T01:34:31.444Z,22.50
2017-12-25T01:37:00.498Z,22.00
2017-12-25T01:39:28.697Z,22.33
2017-12-25T01:41:57.018Z,22.17
2017-12-25T01:44:25.241Z,25.50
2017-12-25T01:47:05.477Z,22.43
2017-12-25T01:49:33.712Z,22.50
2017-12-25T01:52:02.687Z,26.07
2017-12-25T01:54:35.367Z,21.10
2017-12-25T02:10:43.585Z,19.13
2017-12-25T02:13:11.809Z,21.20
2017-12-25T02:15:40.832Z,18.20
2017-12-25T02:18:10.239Z,18.57
2017-12-25T02:20:39.643Z,18.87
2017-12-25T02:23:08.748Z,15.90
2017-12-25T02:25:36.966Z,21.00
2017-12-25T02:28:05.172Z,19.63
2017-12-25T02:30:33.390Z,17.73
2017-12-25T02:33:01.594Z,22.47
2017-12-25T02:35:29.827Z,20.50
2017-12-25T02:37:58.283Z,19.47
2017-12-25T02:40:27.286Z,20.37
2017-12-25T02:42:56.250Z,20.63
2017-12-25T02:45:25.253Z,19.70
2017-12-25T02:47:53.465Z,17.80
2017-12-25T02:50:21.698Z,17.80
2017-12-25T02:52:49.917Z,16.77
2017-12-25T02:55:18.123Z,15.93
2017-12-25T02:57:47.679Z,15.23
2017-12-25T03:00:15.904Z,14.23
2017-12-25T03:02:44.130Z,14.83
2017-12-25T03:05:12.342Z,12.17
2017-12-25T03:07:40.589Z,15.53
2017-12-25T03:10:08.801Z,16.30
2017-12-25T03:12:37.237Z,14.43
2017-12-25T03:15:05.450Z,15.13
2017-12-25T03:17:33.673Z,15.77
2017-12-25T03:20:01.889Z,15.10
2017-12-25T03:22:30.114Z,14.77
2017-12-25T03:24:59.098Z,14.10
2017-12-25T03:27:28.085Z,15.60
2017-12-25T03:29:56.313Z,14.80
2017-12-25T03:32:24.571Z,16.03
2017-12-25T03:34:52.749Z,14.77
2017-12-25T03:37:20.956Z,13.90
2017-12-25T03:39:49.475Z,15.40
2017-12-25T03:42:18.462Z,15.00
2017-12-25T03:44:47.766Z,14.50
2017-12-25T03:47:18.667Z,14.07
2017-12-25T03:49:46.860Z,14.80
2017-12-25T03:52:17.509Z,15.63
2017-12-25T03:54:46.486Z,14.60
2017-12-25T03:57:15.490Z,18.00
2017-12-25T03:59:44.469Z,18.73
2017-12-25T04:02:12.745Z,14.20
2017-12-25T04:04:40.958Z,18.03
2017-12-25T04:07:09.225Z,18.17
2017-12-25T04:09:38.210Z,15.07
2017-12-25T04:12:06.684Z,13.93
2017-12-25T04:14:35.775Z,19.10
2017-12-25T04:17:05.242Z,17.70
2017-12-25T04:19:33.469Z,14.73
2017-12-25T04:22:01.691Z,16.47
2017-12-25T04:24:30.736Z,17.80
2017-12-25T04:26:59.203Z,15.70
2017-12-25T04:29:28.195Z,14.47
2017-12-25T04:31:57.209Z,14.13
2017-12-25T04:34:25.442Z,17.50
2017-12-25T04:36:53.652Z,14.57
2017-12-25T04:39:29.001Z,16.87
2017-12-25T04:41:57.222Z,16.37
2017-12-25T04:44:25.429Z,15.50
2017-12-25T04:46:53.670Z,19.20
2017-12-25T04:49:21.977Z,15.30
2017-12-25T04:51:50.228Z,12.57
2017-12-25T04:54:18.445Z,14.60
2017-12-25T04:56:47.441Z,15.27
2017-12-25T04:59:15.649Z,14.67
2017-12-25T05:01:43.933Z,16.90
2017-12-25T05:04:12.136Z,15.73
2017-12-25T05:06:41.129Z,14.20
2017-12-25T05:09:10.146Z,13.80
2017-12-25T05:11:38.394Z,12.10
2017-12-25T05:14:07.378Z,13.40
2017-12-25T05:16:35.631Z,13.43
2017-12-25T05:19:03.963Z,14.43
2017-12-25T05:21:32.185Z,12.13
2017-12-25T05:24:00.425Z,13.03
2017-12-25T05:26:28.654Z,12.63
2017-12-25T05:28:57.665Z,15.27
2017-12-25T05:31:25.889Z,14.90
2017-12-25T05:33:54.130Z,14.97
2017-12-25T05:36:22.341Z,12.20
2017-12-25T05:38:50.681Z,11.53
2017-12-25T05:41:18.908Z,11.73
2017-12-25T05:43:47.169Z,13.40
2017-12-25T05:46:15.392Z,11.70
2017-12-25T05:48:44.379Z,11.80
2017-12-25T05:51:12.629Z,10.43
2017-12-25T05:53:40.904Z,10.43
2017-12-25T05:56:09.401Z,10.10
2017-12-25T05:58:38.398Z,9.70
2017-12-25T06:01:07.390Z,8.03
2017-12-25T06:03:36.401Z,11.17
2017-12-25T06:06:05.372Z,9.60
2017-12-25T06:08:33.589Z,10.67
2017-12-25T06:11:01.846Z,9.20
2017-12-25T06:13:30.130Z,8.83
2017-12-25T06:15:58.360Z,8.13
2017-12-25T06:18:27.401Z,10.17
2017-12-25T06:20:55.606Z,10.90
2017-12-25T06:23:23.833Z,9.40
2017-12-25T06:25:52.830Z,10.10
2017-12-25T06:28:21.294Z,11.60
2017-12-25T06:30:50.290Z,9.60
2017-12-25T06:33:19.266Z,9.70
2017-12-25T06:35:47.490Z,8.87
2017-12-25T06:38:15.710Z,9.17
2017-12-25T06:40:44.206Z,9.60
2017-12-25T06:43:13.173Z,9.60
2017-12-25T06:45:41.393Z,7.53
2017-12-25T06:48:10.369Z,7.67
2017-12-25T06:50:38.594Z,8.03
2017-12-25T06:53:06.814Z,9.27
2017-12-25T06:55:35.297Z,7.87
2017-12-25T06:58:04.280Z,9.10
2017-12-25T07:00:32.485Z,9.57
2017-12-25T07:03:00.718Z,9.07
2017-12-25T07:05:28.927Z,8.70
2017-12-25T07:07:57.909Z,7.40
2017-12-25T07:10:26.894Z,13.40
2017-12-25T07:12:55.904Z,8.77
2017-12-25T07:15:24.111Z,8.70
2017-12-25T07:17:52.298Z,10.50
2017-12-25T07:20:20.543Z,11.40
2017-12-25T07:22:48.760Z,11.20
2017-12-25T07:25:16.978Z,9.43
2017-12-25T07:27:45.202Z,9.20
2017-12-25T07:30:13.423Z,9.17
2017-12-25T07:32:42.402Z,9.43
2017-12-25T07:35:11.387Z,8.80
2017-12-25T07:37:39.597Z,9.10
2017-12-25T07:40:07.846Z,7.20
2017-12-25T07:42:36.045Z,6.23
2017-12-25T07:45:04.246Z,9.60
2017-12-25T07:47:32.479Z,11.40
2017-12-25T07:50:00.694Z,9.33
2017-12-25T07:52:28.925Z,7.30
2017-12-25T07:54:57.893Z,6.63
2017-12-25T07:57:26.107Z,8.60
2017-12-25T07:59:54.324Z,9.03
2017-12-25T08:02:22.550Z,9.60
2017-12-25T08:04:50.766Z,10.43
2017-12-25T08:07:19.001Z,9.73
2017-12-25T08:09:47.223Z,14.10
2017-12-25T08:12:15.437Z,12.10
2017-12-25T08:14:43.661Z,12.30
2017-12-25T08:17:11.886Z,11.90
2017-12-25T08:19:40.114Z,10.97
2017-12-25T08:22:08.340Z,13.73
2017-12-25T08:24:36.616Z,13.00
2017-12-25T08:27:04.837Z,10.13
2017-12-25T08:29:33.070Z,11.70
2017-12-25T08:32:01.319Z,10.47
2017-12-25T08:34:29.514Z,8.47
2017-12-25T08:36:57.849Z,8.73
2017-12-25T08:39:26.057Z,10.70
2017-12-25T08:41:54.293Z,10.90
2017-12-25T08:44:22.505Z,8.40
2017-12-25T08:46:50.742Z,8.47
2017-12-25T08:49:20.445Z,8.20
2017-12-25T08:51:48.666Z,9.30
2017-12-25T08:54:16.888Z,9.23
2017-12-25T08:56:45.090Z,10.00
2017-12-25T08:59:14.094Z,13.17
2017-12-25T09:01:42.307Z,10.77
2017-12-25T09:04:10.521Z,9.30
2017-12-25T09:06:38.737Z,9.17
2017-12-25T09:09:06.949Z,6.97
2017-12-25T09:11:35.170Z,9.07
2017-12-25T09:14:04.173Z,9.13
2017-12-25T09:16:32.409Z,13.77
2017-12-25T09:19:00.625Z,8.57
2017-12-25T09:21:28.866Z,9.03
2017-12-25T09:23:57.861Z,8.97
2017-12-25T09:26:27.211Z,10.93
2017-12-25T09:28:55.421Z,13.10
2017-12-25T09:31:23.929Z,14.50
2017-12-25T09:33:52.157Z,12.00
2017-12-25T09:36:20.381Z,11.63
2017-12-25T09:38:48.605Z,10.50
2017-12-25T09:41:17.057Z,12.73
2017-12-25T09:43:45.284Z,11.17
2017-12-25T09:46:13.537Z,10.27
2017-12-25T09:48:41.753Z,10.33
2017-12-25T09:51:10.234Z,10.07
2017-12-25T09:53:38.485Z,10.83
2017-12-25T09:56:06.702Z,11.80
2017-12-25T09:58:34.926Z,8.80
2017-12-25T10:01:03.141Z,11.20
2017-12-25T10:03:31.381Z,13.83
2017-12-25T10:05:59.609Z,13.30
2017-12-25T10:08:27.841Z,13.57
2017-12-25T10:10:56.057Z,11.30
2017-12-25T10:13:24.309Z,13.50
2017-12-25T10:15:53.357Z,12.03
2017-12-25T10:18:21.578Z,14.17
2017-12-25T10:20:50.592Z,12.37
2017-12-25T10:23:19.593Z,17.90
2017-12-25T10:25:48.566Z,12.10
2017-12-25T10:28:16.774Z,17.47
2017-12-25T10:30:45.311Z,18.33
2017-12-25T10:33:13.518Z,17.60
2017-12-25T10:35:41.749Z,13.50
2017-12-25T10:38:10.782Z,14.80
2017-12-25T10:40:39.022Z,18.13
2017-12-25T10:43:08.015Z,12.20
2017-12-25T10:45:37.041Z,15.60
2017-12-25T10:48:05.266Z,19.10
2017-12-25T10:50:34.285Z,15.17
2017-12-25T10:53:03.574Z,14.43
2017-12-25T10:55:32.565Z,17.30
2017-12-25T10:58:01.654Z,15.47
2017-12-25T11:00:36.502Z,15.20
2017-12-25T11:03:05.499Z,11.43
2017-12-25T11:05:33.717Z,13.97
2017-12-25T11:08:01.972Z,13.90
2017-12-25T11:10:30.202Z,13.80
2017-12-25T11:12:59.227Z,16.50
2017-12-25T11:15:27.465Z,16.80
2017-12-25T11:17:55.898Z,19.33
2017-12-25T11:20:24.141Z,13.73
2017-12-25T11:22:52.392Z,11.27
2017-12-25T11:25:20.674Z,14.47
2017-12-25T11:27:48.891Z,13.40
2017-12-25T11:30:17.439Z,17.97
2017-12-25T11:32:46.421Z,13.93
2017-12-25T11:35:14.638Z,13.30
2017-12-25T11:37:42.879Z,16.67
2017-12-25T11:43:10.572Z,13.93
2017-12-25T11:45:38.799Z,16.03
2017-12-25T11:48:07.314Z,15.00
2017-12-25T11:50:36.301Z,19.63
2017-12-25T11:53:04.530Z,15.80
2017-12-25T11:55:32.768Z,15.50
2017-12-25T11:58:01.761Z,15.30
2017-12-25T12:00:30.762Z,16.43
2017-12-25T12:02:59.022Z,16.00
2017-12-25T12:05:27.196Z,14.10
2017-12-25T12:07:55.446Z,17.37
2017-12-25T12:10:23.694Z,13.80
2017-12-25T12:12:51.910Z,17.53
2017-12-25T12:15:20.137Z,15.20
2017-12-25T12:17:48.359Z,15.37
2017-12-25T12:20:17.662Z,14.80
2017-12-25T12:22:45.898Z,15.60
2017-12-25T12:25:14.418Z,17.30
2017-12-25T12:27:43.426Z,20.10
2017-12-25T12:30:11.660Z,19.00
2017-12-25T12:32:40.692Z,18.03
2017-12-25T12:35:08.945Z,16.70
2017-12-25T12:37:37.949Z,17.30
2017-12-25T12:40:06.949Z,19.63
2017-12-25T12:42:35.934Z,18.83
2017-12-25T12:45:04.208Z,17.73
2017-12-25T12:47:32.421Z,16.97
2017-12-25T12:50:00.646Z,16.87
2017-12-25T12:52:29.654Z,20.03
2017-12-25T12:54:58.661Z,19.20
2017-12-25T12:57:27.102Z,18.43
2017-12-25T12:59:56.124Z,14.20
2017-12-25T13:02:24.600Z,18.73
2017-12-25T13:04:52.844Z,18.20
2017-12-25T13:07:21.110Z,16.20
2017-12-25T13:09:50.189Z,22.30
2017-12-25T13:12:18.423Z,19.80
2017-12-25T13:14:47.441Z,16.33
2017-12-25T13:17:15.665Z,18.40
2017-12-25T13:19:43.894Z,19.23
2017-12-25T13:22:12.142Z,15.60
2017-12-25T13:24:40.369Z,21.60
2017-12-25T13:27:08.621Z,19.73
2017-12-25T13:29:36.860Z,16.40
2017-12-25T13:32:05.842Z,17.43
2017-12-25T13:34:34.099Z,15.03
2017-12-25T13:37:02.329Z,15.60
2017-12-25T13:39:30.603Z,16.77
2017-12-25T13:41:58.814Z,17.90
2017-12-25T13:44:27.080Z,17.27
2017-12-25T13:46:55.277Z,19.57
2017-12-25T13:49:23.547Z,17.40
2017-12-25T13:51:52.058Z,20.27
2017-12-25T13:54:21.070Z,17.57
2017-12-25T13:56:49.302Z,19.10
2017-12-25T13:59:17.528Z,19.20
2017-12-25T14:01:45.760Z,16.90
2017-12-25T14:04:13.980Z,17.13
2017-12-25T14:06:42.218Z,17.83
2017-12-25T14:09:11.223Z,18.93
2017-12-25T14:11:39.470Z,16.47
2017-12-25T14:14:08.485Z,14.57
2017-12-25T14:16:37.782Z,12.13
2017-12-25T14:19:05.993Z,14.63
2017-12-25T14:21:34.242Z,18.37
2017-12-25T14:24:02.470Z,16.30
2017-12-25T14:26:30.701Z,11.40
2017-12-25T14:28:58.936Z,15.40
2017-12-25T14:31:27.149Z,13.70
2017-12-25T14:33:55.388Z,15.87
2017-12-25T14:36:23.612Z,15.83
2017-12-25T14:38:51.941Z,17.03
2017-12-25T14:41:20.167Z,15.67
2017-12-25T14:43:48.394Z,15.93
2017-12-25T14:46:17.412Z,18.50
2017-12-25T14:48:45.642Z,18.43
2017-12-25T14:51:13.932Z,18.27
2017-12-25T14:53:42.182Z,18.20
2017-12-25T14:56:10.399Z,16.40
2017-12-25T14:58:40.260Z,17.90
2017-12-25T15:01:09.370Z,15.63
2017-12-25T15:03:37.626Z,21.20
2017-12-25T15:06:05.885Z,16.53
2017-12-25T15:08:34.138Z,15.47
2017-12-25T15:11:03.115Z,18.07
2017-12-25T15:13:32.663Z,15.40
2017-12-25T15:16:01.202Z,16.07
2017-12-25T15:18:30.228Z,17.40
2017-12-25T15:20:58.596Z,15.97
2017-12-25T15:23:26.912Z,19.30
2017-12-25T15:25:55.300Z,17.80
2017-12-25T15:28:23.605Z,16.90
2017-12-25T15:30:52.584Z,18.87
2017-12-25T15:33:21.080Z,19.50
2017-12-25T15:35:50.208Z,19.27
2017-12-25T15:38:18.616Z,21.43
2017-12-25T15:40:47.078Z,17.27
2017-12-25T15:43:15.479Z,22.10
2017-12-25T15:45:43.719Z,18.33
2017-12-25T15:48:11.953Z,21.40
2017-12-25T15:50:40.194Z,15.47
2017-12-25T15:53:08.403Z,16.70
2017-12-25T15:55:36.794Z,19.40
2017-12-25T15:58:05.793Z,16.77
2017-12-25T16:00:36.795Z,15.47
2017-12-25T16:03:05.889Z,16.70
2017-12-25T16:05:34.110Z,16.23
2017-12-25T16:08:02.350Z,13.90
2017-12-25T16:10:30.797Z,18.40
2017-12-25T16:12:59.202Z,14.90
2017-12-25T16:15:27.539Z,12.13
2017-12-25T16:17:55.903Z,10.03
2017-12-25T16:20:24.178Z,14.43
2017-12-25T16:22:52.485Z,15.17
2017-12-25T16:25:20.813Z,14.47
2017-12-25T16:27:49.089Z,16.07
2017-12-25T16:30:18.102Z,18.53
2017-12-25T16:32:46.320Z,16.00
2017-12-25T16:35:14.534Z,15.73
2017-12-25T16:37:43.542Z,14.07
2017-12-25T16:40:11.766Z,15.50
2017-12-25T16:42:40.007Z,15.33
2017-12-25T16:45:08.546Z,15.53
2017-12-25T16:47:36.750Z,15.77
2017-12-25T16:50:05.743Z,21.80
2017-12-25T16:52:33.989Z,16.83
2017-12-25T16:55:02.424Z,20.20
2017-12-25T16:57:30.661Z,20.10
2017-12-25T16:59:59.155Z,14.13
2017-12-25T17:02:27.676Z,20.47
2017-12-25T17:04:56.033Z,16.63
2017-12-25T17:07:24.374Z,14.63
2017-12-25T17:09:52.722Z,15.47
2017-12-25T17:12:21.054Z,16.40
2017-12-25T17:14:50.199Z,17.60
2017-12-25T17:17:18.599Z,22.70
2017-12-25T17:19:46.891Z,17.80
2017-12-25T17:22:15.322Z,15.90
2017-12-25T17:24:44.484Z,16.43
2017-12-25T17:27:12.859Z,14.60
2017-12-25T17:29:41.262Z,15.17
2017-12-25T17:32:09.655Z,19.00
2017-12-25T17:34:38.157Z,20.47
2017-12-25T17:37:06.574Z,18.93
2017-12-25T17:39:35.288Z,16.40
2017-12-25T17:42:03.921Z,17.20
2017-12-25T17:44:32.361Z,17.37
2017-12-25T17:47:00.727Z,16.27
2017-12-25T17:49:29.040Z,22.67
2017-12-25T17:51:57.382Z,19.03
2017-12-25T17:54:25.769Z,18.57
2017-12-25T17:56:54.130Z,18.67
2017-12-25T17:59:22.357Z,49.17
2017-12-25T18:01:50.581Z,23.23
2017-12-25T18:04:18.823Z,15.37
2017-12-25T18:06:47.049Z,17.10
2017-12-25T18:09:15.282Z,18.47
2017-12-25T18:11:43.697Z,15.70
2017-12-25T18:14:11.990Z,14.33
2017-12-25T18:16:40.982Z,16.63
2017-12-25T18:19:09.989Z,16.40
2017-12-25T18:21:38.220Z,15.70
2017-12-25T18:24:06.463Z,16.67
2017-12-25T18:26:34.665Z,16.30
2017-12-25T18:29:02.905Z,15.30
2017-12-25T18:31:31.153Z,17.30
2017-12-25T18:33:59.433Z,21.33
2017-12-25T18:36:28.422Z,20.30
2017-12-25T18:38:57.395Z,22.53
2017-12-25T18:41:25.674Z,20.80
2017-12-25T18:43:53.881Z,24.53
2017-12-25T18:46:22.223Z,24.70
2017-12-25T18:48:51.219Z,19.23
2017-12-25T18:51:19.458Z,22.07
2017-12-25T18:53:47.689Z,16.80
2017-12-25T18:56:16.682Z,20.13
2017-12-25T18:58:45.690Z,20.20
2017-12-25T19:01:13.926Z,18.53
2017-12-25T19:03:42.158Z,19.23
2017-12-25T19:06:10.377Z,24.43
2017-12-25T19:08:39.362Z,18.40
2017-12-25T19:11:07.618Z,19.67
2017-12-25T19:13:35.825Z,13.10
2017-12-25T19:16:04.086Z,23.30
2017-12-25T19:18:32.345Z,23.50
2017-12-25T19:21:00.553Z,18.77
2017-12-25T19:23:29.581Z,20.43
2017-12-25T19:25:57.785Z,16.93
2017-12-25T19:28:26.027Z,20.53
2017-12-25T19:30:54.253Z,22.40
2017-12-25T19:33:22.464Z,23.20
2017-12-25T19:35:50.706Z,24.10
2017-12-25T19:38:18.928Z,21.47
2017-12-25T19:40:47.478Z,23.67
2017-12-25T19:43:15.696Z,28.20
2017-12-25T19:45:43.901Z,23.03
2017-12-25T19:48:12.511Z,22.90
2017-12-25T19:50:41.490Z,23.30
2017-12-25T19:53:09.716Z,23.40
2017-12-25T19:55:37.943Z,22.10
2017-12-25T19:58:06.434Z,24.93
2017-12-25T20:00:35.433Z,24.47
2017-12-25T20:03:04.410Z,25.87
2017-12-25T20:05:32.642Z,26.80
2017-12-25T20:08:00.870Z,23.87
2017-12-25T20:10:29.868Z,24.93
2017-12-25T20:12:58.856Z,25.83
2017-12-25T20:15:27.857Z,25.50
2017-12-25T20:17:56.086Z,30.80
2017-12-25T20:20:24.340Z,29.90
2017-12-25T20:22:52.578Z,25.53
2017-12-25T20:25:21.567Z,25.80
2017-12-25T20:27:49.815Z,27.60
2017-12-25T20:30:18.030Z,27.17
2017-12-25T20:32:46.269Z,25.50
2017-12-25T20:35:14.749Z,25.03
2017-12-25T20:37:42.957Z,24.07
2017-12-25T20:40:11.212Z,25.17
2017-12-25T20:42:39.430Z,23.03
2017-12-25T20:45:07.653Z,25.13
2017-12-25T20:47:35.849Z,26.73
2017-12-25T20:50:04.833Z,23.47
2017-12-25T20:52:33.838Z,26.37
2017-12-25T20:55:02.045Z,30.03
2017-12-25T20:57:30.283Z,25.97
2017-12-25T20:59:59.273Z,26.30
2017-12-25T21:02:28.269Z,27.50
2017-12-25T21:04:56.606Z,23.83
2017-12-25T21:07:24.821Z,24.93
2017-12-25T21:09:53.157Z,25.20
2017-12-25T21:12:21.421Z,30.77
2017-12-25T21:14:50.058Z,25.67
2017-12-25T21:17:18.286Z,26.80
2017-12-25T21:19:47.621Z,25.50
2017-12-25T21:22:15.875Z,26.60
2017-12-25T21:24:44.078Z,23.77
2017-12-25T21:27:12.317Z,34.87
2017-12-25T21:29:40.564Z,22.17
2017-12-25T21:32:08.786Z,23.70
2017-12-25T21:34:37.786Z,23.50
2017-12-25T21:37:06.794Z,27.17
2017-12-25T21:39:35.813Z,27.30
2017-12-25T21:42:04.054Z,25.87
2017-12-25T21:44:32.319Z,25.20
2017-12-25T21:47:00.533Z,27.00
2017-12-25T21:49:28.753Z,22.77
2017-12-25T21:51:56.981Z,27.80
2017-12-25T21:54:25.223Z,20.57
2017-12-25T21:56:53.446Z,22.47
2017-12-25T21:59:21.669Z,21.10
2017-12-25T22:01:49.882Z,25.87
2017-12-25T22:04:18.096Z,20.93
2017-12-25T22:06:46.301Z,22.67
2017-12-25T22:09:14.567Z,22.50
2017-12-25T22:11:42.761Z,22.47
2017-12-25T22:14:10.998Z,26.90
2017-12-25T22:16:39.226Z,27.03
2017-12-25T22:19:07.441Z,24.60
2017-12-25T22:21:35.948Z,25.70
2017-12-25T22:24:04.935Z,21.97
2017-12-25T22:26:33.949Z,30.80
2017-12-25T22:29:02.174Z,27.07
2017-12-25T22:31:31.620Z,26.17
2017-12-25T22:33:59.822Z,24.17
2017-12-25T22:36:28.081Z,27.03
2017-12-25T22:38:56.333Z,27.93
2017-12-25T22:41:24.596Z,25.27
2017-12-25T22:43:53.577Z,29.03
2017-12-25T22:46:21.794Z,26.80
2017-12-25T22:48:50.026Z,23.03
2017-12-25T22:51:18.269Z,28.43
2017-12-25T22:53:46.473Z,27.20
2017-12-25T22:56:14.701Z,28.27
2017-12-25T22:58:42.932Z,25.37
2017-12-25T23:01:12.160Z,25.73
2017-12-25T23:03:40.435Z,29.00
2017-12-25T23:06:08.618Z,29.73
2017-12-25T23:08:36.849Z,25.57
2017-12-25T23:11:05.058Z,27.27
2017-12-25T23:13:33.354Z,27.43
2017-12-25T23:16:02.417Z,26.80
2017-12-25T23:18:31.413Z,26.47
2017-12-25T23:21:00.458Z,27.90
2017-12-25T23:23:28.652Z,23.80
2017-12-25T23:25:56.875Z,24.60
2017-12-25T23:28:25.111Z,29.63
2017-12-25T23:30:53.338Z,28.40
2017-12-25T23:33:21.574Z,26.87
2017-12-25T23:35:50.569Z,26.87
2017-12-25T23:38:18.786Z,28.10
2017-12-25T23:40:47.046Z,26.40
2017-12-25T23:43:15.353Z,23.83
2017-12-25T23:45:43.581Z,23.70
2017-12-25T23:48:11.846Z,29.07
2017-12-25T23:50:40.064Z,27.97
2017-12-25T23:53:08.314Z,28.10
2017-12-25T23:55:36.534Z,29.33
2017-12-25T23:58:04.782Z,26.30
